• Join FlightAware (Why Join?)
  • Login
  • US Flag 
11:54PM EDT


 

Airport Tracker/Info


-or-


 

Live Flight TrackerFlight Track Log ✈ AVN11 ✈ 03-Jan-2014 ✈ YSSY / SYD - NVVV / VLI

Flight Track Log - Related Links

Times and Time Zones

All times are in EST time to prevent confusion due to time zone crossing. See the AVN11 flight status page for this flight to view local times or setup timezone preferences in your user account.

Time Position Orientation Groundspeed Altitude Reporting Facility
EST Latitude Longitude Course Direction KTS MPH feet Rate Location/Type
10:22PM -33.9605 151.1797 140° Southeast 72 83  Level FlightAware ADS-B (YRAY)
10:22PM -33.9483 151.1765 348° North 155 178 900 Level FlightAware ADS-B (YRPA)
10:23PM -33.9584 151.1791 168° South 174 200 600 2,460 Climbing FlightAware ADS-B (YSSY / SYD)
10:23PM -33.9219 151.1695 348° North 180 207 1,400 1,980 Climbing FlightAware ADS-B
10:23PM -33.9019 151.1639 347° North 186 214 2,000 1,500 Climbing FlightAware ADS-B (YRPA)
10:23PM -33.9053 151.1651 164° South 191 220 2,200 1,260 Climbing FlightAware ADS-B (YRAY)
10:23PM -33.8917 151.1562 331° Northwest 199 229 2,300 900 Climbing FlightAware ADS-B (YSSY / SYD)
10:24PM -33.8874 151.1505 313° West 209 241 2,400 1,500 Climbing FlightAware ADS-B
10:24PM -33.8800 151.1402 311° West 223 257 2,600 1,560 Climbing FlightAware ADS-B (YPLB)
10:24PM -33.8718 151.1289 311° West 229 264 3,000 1,740 Climbing FlightAware ADS-B (YRAY)
10:24PM -33.8576 151.1098 312° West 229 264 3,700 1,800 Climbing FlightAware ADS-B (YRPA)
10:25PM -33.8457 151.0943 313° West 238 274 4,100 1,320 Climbing FlightAware ADS-B
10:25PM -33.8330 151.0783 313° West 248 285 4,400 1,800 Climbing FlightAware ADS-B (YRAY)
10:25PM -33.8202 151.0620 313° West 269 310 5,000 2,400 Climbing FlightAware ADS-B (YRAY)
10:25PM -33.8079 151.0463 313° West 264 304 5,600 2,520 Climbing FlightAware ADS-B (YRPA)
10:26PM -33.7919 151.0257 313° West 266 306 6,400 3,000 Climbing FlightAware ADS-B (YRPA)
10:26PM -33.7835 151.0169 319° Northwest 272 313 6,800 2,220 Climbing FlightAware ADS-B (YPLB)
10:26PM -33.7765 151.0124 332° Northwest 269 310 7,000 1,800 Climbing FlightAware ADS-B (YSSY / SYD)
10:26PM -33.7722 151.0107 342° North 267 307 7,200 2,700 Climbing FlightAware ADS-B
10:26PM -33.7523 151.0108 360° North 265 305 7,900 2,040 Climbing FlightAware ADS-B (YSSY / SYD)
10:26PM -33.7449 151.0143 21° North 272 313 8,000 1,560 Climbing FlightAware ADS-B
10:27PM -33.7293 151.0302 40° Northeast 294 338 8,500 1,500 Climbing FlightAware ADS-B (YRAY)
10:27PM -33.7235 151.0420 60° Northeast 300 345 8,600 1,200 Climbing FlightAware ADS-B (YRAY)
10:27PM -33.7189 151.0616 74° East 322 371 8,900 1,380 Climbing FlightAware ADS-B (YRAY)
10:27PM -33.7155 151.1036 85° East 335 386 9,400 1,800 Climbing FlightAware ADS-B
10:27PM -33.7142 151.1211 85° East 337 388 9,700 1,080 Climbing FlightAware ADS-B (YPLB)
10:28PM -33.7112 151.1609 85° East 345 397 10,000 1,500 Climbing FlightAware ADS-B (YRAY)
10:28PM -33.7104 151.1713 85° East 346 398 10,500 3,780 Climbing FlightAware ADS-B (YRPA)
10:28PM -33.7083 151.1952 84° East 354 407 10,700 1,020 Climbing FlightAware ADS-B (YPLB)
10:28PM -33.7023 151.2259 77° East 365 420 11,000 780 Climbing FlightAware ADS-B
10:29PM -33.6899 151.2533 62° Northeast 370 426 11,200 960 Climbing FlightAware ADS-B (YSSY / SYD)
10:29PM -33.6562 151.3087 54° Northeast 392 451 11,800 1,560 Climbing FlightAware ADS-B (YSSY / SYD)
10:30PM -33.6146 151.3805 55° Northeast 404 465 13,100 2,040 Climbing FlightAware ADS-B (YSSY / SYD)
10:30PM -33.5834 151.4346 55° Northeast 410 472 14,200 2,040 Climbing FlightAware ADS-B
10:31PM -33.5484 151.4943 55° Northeast 411 473 15,200 2,580 Climbing Aus ATC (RADAR)
10:31PM -33.5413 151.5067 55° Northeast 410 472 15,900 2,640 Climbing FlightAware ADS-B
10:32PM -33.5014 151.5748 55° Northeast 416 479 17,100 2,040 Climbing FlightAware ADS-B (YSSY / SYD)
10:32PM -33.4591 151.6464 55° Northeast 422 486 18,500 1,860 Climbing FlightAware ADS-B (YSSY / SYD)
10:33PM -33.4210 151.7111 55° Northeast 429 494 19,400 1,620 Climbing FlightAware ADS-B (YSSY / SYD)
10:33PM -33.3751 151.7897 55° Northeast 439 505 20,500 1,740 Climbing FlightAware ADS-B (YSSY / SYD)
10:34PM -33.3479 151.8359 55° Northeast 443 510 21,100 1,920 Climbing FlightAware ADS-B (YPLB)
10:34PM -33.3257 151.8734 55° Northeast 447 514 21,700 2,220 Climbing FlightAware ADS-B (YPLB)
10:34PM -33.3008 151.9156 55° Northeast 437 503 22,600 1,320 Climbing FlightAware ADS-B (YPLB)
10:35PM -33.2957 151.9243 55° Northeast 456 525 23,100 1,140 Climbing FlightAware ADS-B (YSSY / SYD)
10:36PM -33.2027 152.0818 55° Northeast 462 532 24,200 1,500 Climbing FlightAware ADS-B (YPLB)
10:36PM -33.1685 152.1395 55° Northeast 464 534 25,000 1,020 Climbing FlightAware ADS-B
10:37PM -33.1098 152.2380 55° Northeast 478 550 25,600 780 Climbing FlightAware ADS-B (YRPA)
10:38PM -33.0619 152.3184 55° Northeast 487 560 26,100 780 Climbing FlightAware ADS-B (YRPA)
10:38PM -32.9976 152.4262 55° Northeast 505 581 26,700 840 Climbing FlightAware ADS-B (YPLB)
10:39PM -32.9414 152.5198 54° Northeast 512 589 27,300 780 Climbing FlightAware ADS-B (YPLB)
10:39PM -32.9310 152.5371 54° Northeast 510 587 27,400 960 Climbing FlightAware ADS-B (YRPA)
10:40PM -32.8897 152.6059 54° Northeast 511 588 28,000 1,200 Climbing FlightAware ADS-B (YRPA)
10:40PM -32.8335 152.6994 54° Northeast 517 595 28,800 780 Climbing FlightAware ADS-B (YPLB)
10:41PM -32.7949 152.7633 54° Northeast 517 595 28,900 1,020 Climbing Aus ATC (RADAR)
10:41PM -32.7758 152.7950 54° Northeast 519 597 29,500 1,560 Climbing FlightAware ADS-B (YPLB)
10:42PM -32.7196 152.8881 54° Northeast 522 601 30,200 1,140 Climbing FlightAware ADS-B (YPLB)
10:42PM -32.6667 152.9755 54° Northeast 519 597 31,000 840 Climbing FlightAware ADS-B (YPLB)
10:43PM -32.6317 153.0333 54° Northeast 506 582 31,200 1,380 Climbing Aus ATC (RADAR)
10:43PM -32.6064 153.0750 54° Northeast 514 592 32,000 1,680 Climbing FlightAware ADS-B (YPLB)
10:44PM -32.5534 153.1620 54° Northeast 512 589 32,700 540 Climbing FlightAware ADS-B (YPLB)
10:44PM -32.5090 153.2348 54° Northeast 515 593 32,700 720 Level Aus ATC (RADAR)
10:44PM -32.4950 153.2578 54° Northeast 515 593 33,200 1,320 Climbing FlightAware ADS-B (YPLB)
10:45PM -32.4526 153.3272 54° Northeast 517 595 33,600 840 Climbing FlightAware ADS-B (YRPA)
10:46PM -32.3862 153.4354 54° Northeast 516 594 34,300 960 Climbing FlightAware ADS-B (YPLB)
10:46PM -32.3271 153.5314 54° Northeast 510 587 35,000 480 Climbing FlightAware ADS-B (YPLB)
10:47PM -32.2729 153.6191 54° Northeast 511 588 35,000  Level FlightAware ADS-B (YPLB)
10:48PM -32.2175 153.7089 54° Northeast 510 587 35,000 -300 Level FlightAware ADS-B (YPLB)
10:48PM -32.1614 153.8001 54° Northeast 506 582 34,600  Descending Aus ATC (RADAR)
10:49PM -32.1342 153.8433 54° Northeast 506 582 35,000 480 Climbing FlightAware ADS-B (YPLB)
10:49PM -32.0884 153.9169 54° Northeast 506 582 35,000 -420 Level FlightAware ADS-B (YPLB)
10:50PM -32.0483 153.9813 54° Northeast 488 562 34,600  Descending Aus ATC (RADAR)
10:50PM -32.0220 154.0232 54° Northeast 505 581 35,000 300 Climbing FlightAware ADS-B (YPLB)
10:51PM -31.9384 154.1572 54° Northeast 505 581 35,000  Level FlightAware ADS-B (YPLB)
10:52PM -31.8959 154.2251 54° Northeast 505 581 35,000  Level FlightAware ADS-B (YPLB)
10:53PM -31.8014 154.3754 54° Northeast 502 578 35,000  Level FlightAware ADS-B (YPLB)
10:53PM -31.7604 154.4404 53° Northeast 502 578 35,000  Level FlightAware ADS-B (YPLB)
10:54PM -31.6882 154.5544 53° Northeast 500 575 35,000  Level FlightAware ADS-B (YPLB)
10:55PM -31.6351 154.6382 53° Northeast 500 575 35,000 -240 Level FlightAware ADS-B (YPLB)
10:56PM -31.5380 154.7913 53° Northeast 482 555 34,600  Descending Aus ATC (RADAR)
10:56PM -31.5001 154.8509 53° Northeast 500 575 35,000  Climbing FlightAware ADS-B (YPLB)
10:57PM -31.4512 154.9287 53° Northeast 496 571 34,600  Descending Aus ATC (RADAR)
10:57PM -31.4411 154.9441 53° Northeast 500 575 35,000  Climbing FlightAware ADS-B (YPLB)
10:58PM -31.3961 155.0152 53° Northeast 496 571 34,600  Descending Aus ATC (RADAR)
10:58PM -31.3654 155.0627 53° Northeast 500 575 35,000  Climbing FlightAware ADS-B (YPLB)
10:59PM -31.3268 155.1232 53° Northeast 496 571 34,600 -360 Descending Aus ATC (RADAR)
10:59PM -31.2709 155.2100 53° Northeast 500 575 34,600 300 Level Aus ATC (RADAR)
11:00PM -31.2184 155.2913 53° Northeast 502 578 35,000  Climbing FlightAware ADS-B (YPLB)
11:02PM -31.0744 155.5158 53° Northeast 481 554 34,600 -240 Descending Aus ATC (RADAR)
11:02PM -31.0458 155.5591 52° Northeast 482 555 34,600  Level Aus ATC (RADAR)
11:03PM -30.9892 155.6453 53° Northeast 483 556 34,600  Level Aus ATC (RADAR)
11:03PM -30.9211 155.7500 53° Northeast 500 575 34,600  Level Aus ATC (RADAR)
11:04PM -30.8649 155.8360 53° Northeast 500 575 34,600 180 Level Aus ATC (RADAR)
11:05PM -30.7757 155.9640 51° Northeast 472 543 35,000  Climbing Aus ATC (RADAR)
11:07PM -30.6231 156.1643 49° Northeast 502 578 34,600 -240 Descending Aus ATC (RADAR)
11:07PM -30.6001 156.1946 49° Northeast 501 577 34,600  Level Aus ATC (RADAR)
11:08PM -30.5388 156.2752 49° Northeast 499 574 34,600  Level Aus ATC (RADAR)
11:08PM -30.4618 156.3761 48° Northeast 500 575 34,600 120 Level Aus ATC (RADAR)
11:09PM -30.4157 156.4366 49° Northeast 500 575 34,800 120 Climbing Aus ATC (RADAR)
11:10PM -30.3235 156.5572 48° Northeast 500 575 34,800  Level Aus ATC (RADAR)
11:10PM -30.2764 156.6187 48° Northeast 505 581 34,800  Level Aus ATC (RADAR)
11:12PM -30.1343 156.8041 48° Northeast 512 589 34,800  Level Aus ATC (RADAR)
11:12PM -30.1106 156.8347 48° Northeast 512 589 34,800  Level Aus ATC (RADAR)
11:13PM -30.0469 156.9171 48° Northeast 513 590 34,800  Level Aus ATC (RADAR)
11:14PM -29.9596 157.0302 48° Northeast 513 590 34,800  Level Aus ATC (RADAR)
11:14PM -29.9035 157.1021 48° Northeast 515 593 34,800  Level Aus ATC (RADAR)
11:15PM -29.8164 157.2143 48° Northeast 511 588 34,800  Level Aus ATC (RADAR)
11:17PM -29.6982 157.3664 48° Northeast 508 585 34,800  Level Aus ATC (RADAR)
11:17PM -29.6357 157.4469 48° Northeast 507 583 34,800  Level Aus ATC (RADAR)
11:18PM -29.6058 157.4867 49° Northeast 501 577 34,800  Level Aus ATC (RADAR)
11:18PM -29.5401 157.5684 47° Northeast 509 586 34,800  Level Aus ATC (RADAR)
11:19PM -29.4591 157.6697 47° Northeast 512 589 34,800  Level Aus ATC (RADAR)
11:20PM -29.4123 157.7294 48° Northeast 508 585 34,800  Level Aus ATC (RADAR)
11:20PM -29.3345 157.8288 48° Northeast 503 579 34,800  Level Aus ATC (RADAR)
11:21PM -29.3040 157.8684 49° Northeast 499 574 34,800  Level Aus ATC (RADAR)
11:22PM -29.1712 158.0364 48° Northeast 500 575 34,800  Level Aus ATC (RADAR)
11:22PM -29.1393 158.0760 47° Northeast 501 577 34,800  Level Aus ATC (RADAR)
11:23PM -29.0737 158.1545 46° Northeast 503 579 34,800  Level Aus ATC (RADAR)
11:23PM -29.0411 158.1932 46° Northeast 505 581 34,800  Level Aus ATC (RADAR)
11:26PM -28.7959 158.5006 48° Northeast 35,000 60 Climbing Aus ATC (Calculated)
11:28PM -28.6829 158.6416 48° Northeast  Level FlightAware Approximate
11:28PM -28.5593 158.7951 227° Southwest 35,000  Level Aus ATC (Calculated)
11:29PM -28.5980 158.7471 48° Northeast  Level FlightAware Approximate
11:30PM -28.4673 158.9091 47° Northeast  Level FlightAware Approximate
11:31PM -28.3822 159.0142 47° Northeast  Level FlightAware Approximate
11:32PM -28.2970 159.1192 47° Northeast  Level FlightAware Approximate
11:32PM -28.2293 159.2007 49° Northeast 35,000  Level Aus ATC (Calculated)
11:33PM -28.2118 159.2239 47° Northeast  Level FlightAware Approximate
11:34PM -28.3756 159.0306 226° Southwest  Level FlightAware Approximate
11:35PM -28.2879 159.1327 46° Northeast  Level FlightAware Approximate
11:35PM -27.9331 159.5614 40° Northeast 35,000  Level Aus ATC (Calculated)
11:37PM -27.7702 159.7162 47° Northeast  Level Estimated
11:38PM -27.6844 159.8209 47° Northeast  Level FlightAware Approximate
11:39PM -27.5986 159.9256 47° Northeast  Level FlightAware Approximate
11:39PM -27.5230 160.0557 294° West 35,000  Level Aus ATC (Calculated)
11:40PM -27.5126 160.0300 47° Northeast  Level FlightAware Approximate
11:40PM -27.4837 160.1027 47° Northeast 35,000  Level Aus ATC (Calculated)
11:41PM -27.3970 160.2063 47° Northeast  Level FlightAware Approximate
11:42PM -27.3103 160.3098 47° Northeast  Level FlightAware Approximate
11:42PM -27.2128 160.4258 227° Southwest 35,000  Level Aus ATC (Calculated)
11:43PM -27.2235 160.4130 47° Northeast  Level FlightAware Approximate
11:44PM -27.1027 160.5563 47° Northeast  Level FlightAware Approximate
11:44PM -27.0400 160.6304 46° Northeast 35,000  Level Aus ATC (Calculated)
11:45PM -27.0157 160.6592 47° Northeast  Level FlightAware Approximate
11:46PM -26.9007 160.7948 46° Northeast  Level FlightAware Approximate
11:46PM -26.8486 160.8561 46° Northeast 35,000  Level Aus ATC (Calculated)
11:48PM -26.7090 161.0199 46° Northeast  Level FlightAware Approximate
11:48PM -26.6748 161.0600 46° Northeast 35,000  Level Aus ATC (Calculated)
11:49PM -26.6222 161.1215 46° Northeast 35,000  Level Aus ATC (Calculated)
11:50PM -26.5348 161.2235 46° Northeast  Level FlightAware Approximate
11:51PM -26.4474 161.3253 46° Northeast  Level FlightAware Approximate
11:51PM -26.4183 161.3591 46° Northeast 35,000  Level Aus ATC (Calculated)
11:52PM -26.3307 161.4608 46° Northeast  Level FlightAware Approximate
11:53PM -26.2431 161.5623 46° Northeast  Level FlightAware Approximate
11:54PM -26.1554 161.6636 46° Northeast  Level FlightAware Approximate
11:55PM -26.0676 161.7648 46° Northeast  Level FlightAware Approximate
11:56PM -25.9797 161.8659 46° Northeast  Level FlightAware Approximate
11:57PM -25.8918 161.9668 46° Northeast  Level FlightAware Approximate
11:58PM -25.8038 162.0675 46° Northeast  Level FlightAware Approximate
11:59PM -25.7158 162.1681 46° Northeast  Level FlightAware Approximate
12:00AM -25.6276 162.2685 46° Northeast  Level FlightAware Approximate
12:01AM -25.5394 162.3688 46° Northeast  Level FlightAware Approximate
12:01AM -25.4764 162.4404 46° Northeast 35,000  Level Aus ATC (Calculated)
12:02AM -25.3881 162.5404 46° Northeast  Level FlightAware Approximate
12:03AM -25.2997 162.6403 46° Northeast  Level FlightAware Approximate
12:04AM -25.2113 162.7400 46° Northeast  Level FlightAware Approximate
12:05AM -25.1228 162.8396 46° Northeast  Level FlightAware Approximate
12:06AM -25.0342 162.9391 46° Northeast  Level FlightAware Approximate
12:07AM -24.9455 163.0384 45° Northeast  Level FlightAware Approximate
12:08AM -25.0342 162.9391 225° Southwest  Level FlightAware Approximate
12:09AM -24.9455 163.0384 45° Northeast  Level FlightAware Approximate
12:10AM -25.0342 162.9391 225° Southwest  Level FlightAware Approximate
12:11AM -24.9455 163.0384 45° Northeast  Level FlightAware Approximate
12:12AM -25.0342 162.9391 225° Southwest  Level FlightAware Approximate
12:13AM -24.9455 163.0384 45° Northeast  Level FlightAware Approximate
12:14AM -24.9374 163.0474 45° Northeast  Level FlightAware Approximate
12:15AM -24.8486 163.1465 45° Northeast  Level FlightAware Approximate
12:16AM -24.7597 163.2454 45° Northeast  Level FlightAware Approximate
12:17AM -24.6708 163.3442 45° Northeast  Level FlightAware Approximate
12:18AM -24.5818 163.4428 45° Northeast  Level FlightAware Approximate
12:19AM -24.4927 163.5413 45° Northeast  Level FlightAware Approximate
12:20AM -24.4036 163.6396 45° Northeast  Level FlightAware Approximate
12:21AM -24.3144 163.7379 45° Northeast  Level FlightAware Approximate
12:22AM -24.2251 163.8359 45° Northeast  Level FlightAware Approximate
12:23AM -24.1358 163.9339 45° Northeast  Level FlightAware Approximate
12:24AM -24.0464 164.0317 45° Northeast  Level FlightAware Approximate
12:25AM -23.9569 164.1293 45° Northeast  Level FlightAware Approximate
12:26AM -23.8674 164.2269 45° Northeast  Level FlightAware Approximate
12:27AM -23.7779 164.3243 45° Northeast  Level FlightAware Approximate
12:28AM -23.6882 164.4215 45° Northeast  Level FlightAware Approximate
12:29AM -23.5985 164.5187 45° Northeast  Level FlightAware Approximate
12:30AM -23.5088 164.6157 45° Northeast  Level FlightAware Approximate
12:31AM -23.4190 164.7125 45° Northeast  Level FlightAware Approximate
12:32AM -23.3291 164.8092 45° Northeast  Level FlightAware Approximate
12:33AM -23.2391 164.9058 45° Northeast  Level FlightAware Approximate
12:34AM -23.1491 165.0023 45° Northeast  Level FlightAware Approximate
12:35AM -23.0590 165.0986 45° Northeast  Level FlightAware Approximate
12:36AM -22.9689 165.1948 45° Northeast  Level FlightAware Approximate
12:37AM -22.8787 165.2908 44° Northeast  Level FlightAware Approximate
12:38AM -22.7885 165.3868 44° Northeast  Level FlightAware Approximate
12:39AM -22.6982 165.4826 44° Northeast  Level FlightAware Approximate
12:40AM -22.6078 165.5783 44° Northeast  Level FlightAware Approximate
12:41AM -22.5174 165.6738 44° Northeast  Level FlightAware Approximate
12:42AM -22.4269 165.7693 44° Northeast  Level FlightAware Approximate
12:43AM -22.3364 165.8646 44° Northeast  Level FlightAware Approximate
12:44AM -22.2458 165.9597 44° Northeast  Level FlightAware Approximate
12:45AM -22.1552 166.0548 44° Northeast  Level FlightAware Approximate
12:46AM -22.0645 166.1497 44° Northeast  Level FlightAware Approximate
12:47AM -21.9652 166.2310 24° Northeast  Level FlightAware Approximate
12:48AM -21.8498 166.2863 24° Northeast  Level FlightAware Approximate
12:49AM -21.7343 166.3416 24° Northeast  Level FlightAware Approximate
12:50AM -21.6189 166.3968 24° Northeast  Level FlightAware Approximate
12:51AM -21.5034 166.4519 24° Northeast  Level FlightAware Approximate
12:52AM -21.3879 166.5069 24° Northeast  Level FlightAware Approximate
12:53AM -21.2724 166.5619 24° Northeast  Level FlightAware Approximate
12:54AM -21.1569 166.6167 24° Northeast  Level FlightAware Approximate
12:55AM -21.0413 166.6715 24° Northeast  Level FlightAware Approximate
12:56AM -20.9257 166.7262 24° Northeast  Level FlightAware Approximate
12:57AM -20.8102 166.7807 24° Northeast  Level FlightAware Approximate
12:58AM -20.6946 166.8353 24° Northeast  Level FlightAware Approximate
12:59AM -20.5789 166.8897 24° Northeast  Level FlightAware Approximate
01:00AM -20.4633 166.9440 24° Northeast  Level FlightAware Approximate
01:01AM -20.3477 166.9983 24° Northeast  Level FlightAware Approximate
01:02AM -20.2320 167.0525 24° Northeast  Level FlightAware Approximate
01:03AM -20.1163 167.1066 24° Northeast  Level FlightAware Approximate
01:04AM -20.0006 167.1606 24° Northeast  Level FlightAware Approximate
01:05AM -19.8849 167.2145 24° Northeast  Level FlightAware Approximate
01:06AM -19.7691 167.2684 24° Northeast  Level FlightAware Approximate
01:07AM -19.6534 167.3222 24° Northeast  Level FlightAware Approximate
01:08AM -19.5376 167.3759 24° Northeast  Level FlightAware Approximate
01:09AM -19.4219 167.4298 24° Northeast  Level FlightAware Approximate
01:10AM -19.3063 167.4837 24° Northeast  Level FlightAware Approximate
01:11AM -19.1907 167.5376 24° Northeast  Level FlightAware Approximate
01:12AM -19.0750 167.5913 24° Northeast  Level FlightAware Approximate
01:13AM -18.9593 167.6450 24° Northeast  Level FlightAware Approximate
01:14AM -18.8436 167.6987 24° Northeast  Level FlightAware Approximate
01:15AM -18.7278 167.7522 24° Northeast  Level FlightAware Approximate
01:16AM -18.6121 167.8057 24° Northeast  Level FlightAware Approximate
01:17AM -18.4964 167.8592 24° Northeast  Level FlightAware Approximate
01:18AM -18.3807 167.9128 24° Northeast  Level FlightAware Approximate
01:19AM -18.2651 167.9663 24° Northeast  Level FlightAware Approximate
01:20AM -18.1494 168.0197 24° Northeast  Level FlightAware Approximate
01:21AM -18.0337 168.0731 24° Northeast  Level FlightAware Approximate
01:22AM -17.9179 168.1264 24° Northeast  Level FlightAware Approximate
01:23AM -17.8022 168.1796 24° Northeast  Level FlightAware Approximate
01:24AM -17.6864 168.2328 24° Northeast  Level FlightAware Approximate
01:25AM -17.6621 168.2439 24° Northeast  Level FlightAware Approximate
01:26AM -17.6993 168.3198 24° Northeast  Level Estimated
01:27AM -17.6993 168.3198 24° Northeast  Level Estimated
01:28AM -17.6993 168.3198 24° Northeast  Level Estimated
01:29AM -17.6993 168.3198 24° Northeast  Level Estimated
01:30AM -17.6993 168.3198 24° Northeast  Level Estimated
01:31AM -17.6993 168.3198 24° Northeast  Level Estimated
01:32AM -17.6993 168.3198 24° Northeast  Level Estimated
01:33AM -17.6993 168.3198 24° Northeast  Level Estimated
01:34AM -17.6993 168.3198 24° Northeast  Level Estimated
01:35AM -17.6993 168.3198 24° Northeast  Level Estimated